Time;durP1;ratioP1;P1;durP2;ratioP2;P2;SDS_P1;SDS_P2;PMS_P1;PMS_P2;Temp;Humidity;BMP_temperature;BMP_pressure;BME280_temperature;BME280_humidity;BME280_pressure;Samples;Min_cycle;Max_cycle;Signal;HPM_P1;HPM_P2
2023/10/31 05:02:28;;;;;;;7.27;6.60;;;12.30;99.90;;;;;;5047811;23;21009;-71
2023/10/31 05:04:55;;;;;;;8.03;6.37;;;12.30;99.90;;;;;;4952235;28;20814;-70
2023/10/31 05:07:22;;;;;;;7.90;6.40;;;12.30;99.90;;;;;;4953607;28;20468;-70
2023/10/31 05:09:48;;;;;;;6.57;5.97;;;12.30;99.90;;;;;;4955845;28;20476;-70
2023/10/31 05:12:15;;;;;;;7.67;6.87;;;12.40;99.90;;;;;;4955137;28;20496;-70
2023/10/31 05:14:42;;;;;;;8.30;6.50;;;12.40;99.90;;;;;;4958156;28;20472;-70
2023/10/31 05:17:08;;;;;;;6.80;6.10;;;12.40;99.90;;;;;;4949657;28;20473;-70
2023/10/31 05:19:36;;;;;;;6.70;6.07;;;12.40;99.90;;;;;;4955942;28;20483;-70
2023/10/31 05:22:03;;;;;;;6.57;5.80;;;12.40;99.90;;;;;;4950029;28;20489;-70
2023/10/31 05:24:32;;;;;;;6.60;6.10;;;12.40;99.90;;;;;;4949639;28;20464;-71
2023/10/31 05:26:58;;;;;;;6.07;5.47;;;12.40;99.90;;;;;;4947290;28;20902;-71
2023/10/31 05:29:25;;;;;;;6.37;5.80;;;12.40;99.90;;;;;;4951938;28;20476;-71
2023/10/31 05:31:52;;;;;;;7.73;4.90;;;12.40;99.90;;;;;;4947517;29;20496;-70
2023/10/31 05:34:18;;;;;;;4.87;4.47;;;12.40;99.90;;;;;;4946898;28;20866;-71
2023/10/31 05:36:46;;;;;;;5.03;4.60;;;12.40;99.90;;;;;;4951321;28;20488;-71
2023/10/31 05:39:13;;;;;;;5.73;5.30;;;12.40;99.90;;;;;;4956970;28;20965;-71
2023/10/31 05:41:40;;;;;;;5.20;4.80;;;12.40;99.90;;;;;;4951663;28;20603;-72
2023/10/31 05:44:07;;;;;;;4.67;4.27;;;12.40;99.90;;;;;;4954338;28;20540;-72
2023/10/31 05:46:39;;;;;;;4.67;4.30;;;12.40;99.90;;;;;;4956401;28;20479;-72
2023/10/31 05:49:07;;;;;;;4.47;4.17;;;12.40;99.90;;;;;;4957486;28;20544;-72
2023/10/31 05:51:35;;;;;;;4.73;4.33;;;12.40;99.90;;;;;;4953915;28;20851;-71
2023/10/31 05:54:03;;;;;;;5.03;4.43;;;12.40;99.90;;;;;;4948577;28;20469;-70
2023/10/31 05:56:30;;;;;;;3.67;3.47;;;12.40;99.90;;;;;;4956787;28;20464;-71
2023/10/31 05:58:56;;;;;;;4.77;3.80;;;12.40;99.90;;;;;;4956980;28;21003;-70
2023/10/31 06:01:23;;;;;;;3.57;3.27;;;12.40;99.90;;;;;;4954556;28;20495;-71
2023/10/31 06:03:50;;;;;;;3.57;3.37;;;12.40;99.90;;;;;;4947741;28;20882;-71
2023/10/31 06:06:16;;;;;;;4.27;3.00;;;12.50;99.90;;;;;;4946224;28;20469;-71
2023/10/31 06:08:43;;;;;;;4.20;3.70;;;12.50;99.90;;;;;;4947363;28;20508;-71
2023/10/31 06:11:12;;;;;;;3.10;2.90;;;12.40;99.90;;;;;;4950969;28;20503;-69
2023/10/31 06:13:39;;;;;;;3.10;2.90;;;12.40;99.90;;;;;;4945358;28;20485;-70
2023/10/31 06:16:07;;;;;;;2.23;2.23;;;12.40;99.90;;;;;;4942122;28;20480;-70
2023/10/31 06:18:34;;;;;;;2.10;2.00;;;12.40;99.90;;;;;;4952114;28;20479;-70
2023/10/31 06:21:01;;;;;;;1.47;1.47;;;12.40;99.90;;;;;;4950083;28;20512;-71
2023/10/31 06:23:28;;;;;;;1.67;1.67;;;12.30;99.90;;;;;;4952068;28;20745;-71
2023/10/31 06:25:54;;;;;;;1.50;1.50;;;12.30;99.90;;;;;;4946220;28;20484;-71
2023/10/31 06:28:24;;;;;;;1.10;1.10;;;12.20;99.90;;;;;;4952371;28;20576;-70
2023/10/31 06:30:51;;;;;;;14.50;7.27;;;12.20;99.90;;;;;;4949010;28;20500;-71
2023/10/31 06:33:17;;;;;;;4.23;3.87;;;12.10;99.90;;;;;;4955387;28;20472;-69
2023/10/31 06:35:44;;;;;;;6.67;5.40;;;12.10;99.90;;;;;;4950668;28;20476;-70
2023/10/31 06:38:11;;;;;;;11.03;9.80;;;12.00;99.90;;;;;;4948353;28;20469;-68
2023/10/31 06:40:37;;;;;;;2.67;2.53;;;12.00;99.90;;;;;;4953124;28;20488;-70
2023/10/31 06:43:04;;;;;;;1.70;1.70;;;12.00;99.90;;;;;;4948317;28;20477;-70
2023/10/31 06:45:32;;;;;;;1.40;1.30;;;12.00;99.90;;;;;;4949948;28;20490;-69
2023/10/31 06:47:59;;;;;;;6.70;5.23;;;11.90;99.90;;;;;;4946330;28;20477;-69
2023/10/31 06:50:25;;;;;;;4.13;3.73;;;12.00;99.90;;;;;;4952134;28;20470;-70
2023/10/31 06:52:52;;;;;;;1.50;1.43;;;11.90;99.90;;;;;;4952479;28;20855;-70
2023/10/31 06:55:19;;;;;;;1.97;1.87;;;11.90;99.90;;;;;;4950744;28;20495;-70
2023/10/31 06:57:45;;;;;;;1.27;1.27;;;11.80;99.90;;;;;;4950030;28;20491;-70
2023/10/31 07:00:13;;;;;;;3.20;3.00;;;11.80;99.90;;;;;;4951199;28;20479;-68
2023/10/31 07:02:42;;;;;;;2.17;2.08;;;11.70;99.90;;;;;;4951291;28;20516;-70
2023/10/31 07:05:09;;;;;;;0.80;0.80;;;11.70;99.90;;;;;;4952299;28;20640;-72
2023/10/31 07:07:35;;;;;;;1.57;1.57;;;11.60;99.90;;;;;;4950490;28;20215;-69
2023/10/31 07:10:02;;;;;;;1.00;1.00;;;11.60;99.90;;;;;;4952115;28;20848;-71
2023/10/31 07:12:29;;;;;;;2.70;2.60;;;11.50;99.90;;;;;;4951970;28;20242;-71
2023/10/31 07:14:58;;;;;;;2.20;2.10;;;11.50;99.90;;;;;;4957281;28;20521;-71
2023/10/31 07:17:25;;;;;;;2.00;2.00;;;11.50;99.90;;;;;;4945608;28;20473;-71
2023/10/31 07:19:53;;;;;;;3.42;3.13;;;11.50;99.90;;;;;;4941858;28;20327;-72
2023/10/31 07:22:19;;;;;;;2.85;2.65;;;11.40;99.90;;;;;;4950727;28;20225;-70
2023/10/31 07:24:46;;;;;;;2.30;2.20;;;11.40;99.90;;;;;;4955943;28;20215;-71
2023/10/31 07:27:13;;;;;;;5.25;4.85;;;11.40;99.90;;;;;;4955244;28;20594;-70
2023/10/31 07:29:41;;;;;;;4.72;4.38;;;11.40;99.90;;;;;;4948727;28;20227;-71
2023/10/31 07:32:08;;;;;;;4.90;4.55;;;11.40;99.90;;;;;;4945215;28;20241;-71
2023/10/31 07:34:34;;;;;;;1.55;1.55;;;11.40;99.90;;;;;;4953848;28;20215;-72
2023/10/31 07:37:03;;;;;;;1.20;1.20;;;11.30;99.90;;;;;;4946560;28;20216;-71
2023/10/31 07:39:30;;;;;;;1.33;1.33;;;11.40;99.90;;;;;;4953379;28;20212;-70
2023/10/31 07:41:57;;;;;;;1.40;1.30;;;11.40;99.90;;;;;;4949823;28;20231;-71
2023/10/31 07:44:23;;;;;;;1.05;1.05;;;11.40;99.90;;;;;;4956737;28;20634;-72
2023/10/31 07:46:50;;;;;;;1.02;1.02;;;11.40;99.90;;;;;;4949142;28;20212;-71
2023/10/31 07:49:17;;;;;;;0.60;0.60;;;11.40;99.90;;;;;;4949384;28;20235;-71
2023/10/31 07:51:45;;;;;;;0.80;0.80;;;11.40;99.90;;;;;;4954645;28;20231;-69
2023/10/31 07:54:13;;;;;;;0.70;0.70;;;11.40;99.90;;;;;;4945188;28;20217;-70
2023/10/31 07:56:40;;;;;;;0.65;0.65;;;11.40;99.90;;;;;;4953907;28;20307;-70
2023/10/31 07:59:07;;;;;;;0.68;0.68;;;11.40;99.90;;;;;;4954884;28;20218;-71
2023/10/31 08:01:35;;;;;;;0.57;0.50;;;11.40;99.90;;;;;;4953898;28;20224;-72
2023/10/31 08:04:01;;;;;;;0.40;0.35;;;11.40;99.90;;;;;;4949336;28;20243;-71
2023/10/31 08:06:28;;;;;;;0.35;0.35;;;11.40;99.90;;;;;;4954822;28;20213;-71
2023/10/31 08:08:55;;;;;;;0.40;0.40;;;11.40;99.90;;;;;;4949945;28;20208;-71
2023/10/31 08:11:23;;;;;;;0.50;0.50;;;11.40;99.90;;;;;;4950605;28;20749;-71
2023/10/31 08:13:50;;;;;;;0.47;0.40;;;11.40;99.90;;;;;;4943366;28;20479;-72
2023/10/31 08:16:19;;;;;;;0.40;0.40;;;11.40;99.90;;;;;;4951446;28;20254;-70
2023/10/31 08:18:45;;;;;;;0.60;0.60;;;11.30;99.90;;;;;;4953936;28;20212;-71
2023/10/31 08:21:13;;;;;;;0.50;0.50;;;11.40;99.90;;;;;;4960043;28;20228;-71
2023/10/31 08:23:40;;;;;;;0.82;0.82;;;11.30;99.90;;;;;;4950862;28;20208;-71
2023/10/31 08:26:09;;;;;;;0.38;0.38;;;11.30;99.90;;;;;;4958409;28;20306;-70
2023/10/31 08:28:37;;;;;;;0.70;0.70;;;11.40;99.90;;;;;;4963353;28;20233;-71
2023/10/31 08:31:04;;;;;;;0.52;0.47;;;11.40;99.90;;;;;;4961245;28;20240;-72
2023/10/31 08:33:31;;;;;;;0.40;0.40;;;11.40;99.90;;;;;;4965389;28;20674;-72
2023/10/31 08:35:58;;;;;;;0.50;0.50;;;11.40;99.90;;;;;;4957335;28;20216;-72
2023/10/31 08:38:24;;;;;;;4.18;2.75;;;11.40;99.90;;;;;;4958285;28;20417;-70
2023/10/31 08:40:51;;;;;;;1.92;1.92;;;11.30;99.90;;;;;;4959022;28;20247;-71
2023/10/31 08:43:18;;;;;;;1.98;1.23;;;11.30;99.90;;;;;;4958715;28;20638;-71
2023/10/31 08:45:46;;;;;;;0.85;0.85;;;11.40;99.90;;;;;;4956030;28;20209;-71
2023/10/31 08:48:13;;;;;;;0.93;0.93;;;11.30;99.90;;;;;;4951423;28;20239;-71
2023/10/31 08:50:39;;;;;;;1.17;1.17;;;11.30;99.90;;;;;;4961045;28;20569;-70
2023/10/31 08:53:06;;;;;;;1.00;1.00;;;11.30;99.90;;;;;;4956223;28;20244;-72
2023/10/31 08:55:33;;;;;;;0.57;0.57;;;11.30;99.90;;;;;;4959348;28;20203;-70
2023/10/31 08:57:59;;;;;;;0.70;0.65;;;11.30;99.90;;;;;;4949829;28;20224;-71
2023/10/31 09:00:28;;;;;;;0.63;0.63;;;11.30;99.90;;;;;;4957240;28;20294;-72
2023/10/31 09:02:56;;;;;;;0.80;0.80;;;11.30;99.90;;;;;;4961979;28;20241;-69
2023/10/31 09:05:22;;;;;;;4.32;1.30;;;11.30;99.90;;;;;;4948696;28;20227;-69
2023/10/31 09:07:49;;;;;;;0.50;0.50;;;11.20;99.90;;;;;;4958494;28;20233;-68
2023/10/31 09:10:16;;;;;;;2.70;1.13;;;11.20;99.90;;;;;;4958130;28;20212;-69
2023/10/31 09:12:43;;;;;;;0.98;0.98;;;11.20;99.90;;;;;;4959105;28;20234;-71
2023/10/31 09:15:10;;;;;;;0.90;0.90;;;11.20;99.90;;;;;;4954543;28;20212;-69
2023/10/31 09:17:37;;;;;;;0.50;0.50;;;11.20;99.90;;;;;;4954827;28;20212;-69
2023/10/31 09:20:06;;;;;;;0.90;0.90;;;11.20;99.90;;;;;;4956282;28;20240;-70
2023/10/31 09:22:33;;;;;;;0.73;0.40;;;11.20;99.90;;;;;;4952444;28;20227;-70
2023/10/31 09:25:00;;;;;;;0.50;0.50;;;11.20;99.90;;;;;;4952170;28;20215;-69
2023/10/31 09:27:26;;;;;;;0.30;0.30;;;11.20;99.90;;;;;;4956682;28;20218;-70
2023/10/31 09:29:53;;;;;;;0.40;0.40;;;11.20;99.90;;;;;;4956588;28;20222;-70
2023/10/31 09:32:20;;;;;;;0.70;0.70;;;11.20;99.90;;;;;;4951067;28;20618;-68
2023/10/31 09:34:47;;;;;;;0.50;0.50;;;11.20;99.90;;;;;;4959781;28;20210;-70
2023/10/31 09:37:15;;;;;;;5.85;1.50;;;11.30;99.90;;;;;;4958210;28;20215;-70
2023/10/31 09:39:41;;;;;;;1.60;1.60;;;11.30;99.90;;;;;;4955399;28;20212;-70
2023/10/31 09:42:09;;;;;;;2.20;1.30;;;11.30;99.90;;;;;;4949341;28;20232;-71
2023/10/31 09:44:36;;;;;;;1.10;1.10;;;11.40;99.90;;;;;;4947531;28;20217;-68
2023/10/31 09:47:03;;;;;;;1.40;1.40;;;11.40;99.90;;;;;;4941648;28;20217;-72
2023/10/31 09:49:30;;;;;;;1.20;1.20;;;11.50;99.90;;;;;;4954450;28;20713;-72
2023/10/31 09:51:58;;;;;;;1.67;1.67;;;11.50;99.90;;;;;;4957796;28;20240;-71
2023/10/31 09:54:27;;;;;;;0.68;0.68;;;11.50;99.90;;;;;;4963808;28;20212;-71
2023/10/31 09:56:54;;;;;;;0.40;0.40;;;11.60;99.90;;;;;;4959301;28;20216;-70
2023/10/31 09:59:21;;;;;;;0.60;0.60;;;11.60;99.90;;;;;;4957060;28;20213;-70
2023/10/31 10:01:47;;;;;;;0.73;0.70;;;11.60;99.90;;;;;;4952437;28;20244;-70
2023/10/31 10:04:14;;;;;;;0.70;0.70;;;11.50;99.90;;;;;;4951199;28;20205;-71
2023/10/31 10:06:51;;;;;;;0.45;0.45;;;11.50;99.90;;;;;;4950335;28;20212;-70
2023/10/31 10:09:18;;;;;;;0.95;0.40;;;11.50;99.90;;;;;;4950878;28;20760;-70
2023/10/31 10:11:46;;;;;;;0.60;0.60;;;11.60;99.90;;;;;;4948709;28;20226;-69
2023/10/31 10:14:13;;;;;;;0.38;0.38;;;11.60;99.90;;;;;;4950274;28;20479;-70
2023/10/31 10:16:40;;;;;;;0.60;0.60;;;11.60;99.90;;;;;;4957294;28;20215;-71
2023/10/31 10:19:19;;;;;;;0.40;0.40;;;11.60;99.90;;;;;;4949639;28;20229;-69
2023/10/31 10:21:50;;;;;;;1.70;0.70;;;11.60;99.90;;;;;;4962187;28;20227;-70
2023/10/31 10:24:17;;;;;;;0.30;0.30;;;11.70;99.90;;;;;;4945893;28;21198;-71
2023/10/31 10:26:44;;;;;;;0.77;0.77;;;11.70;99.90;;;;;;4959920;28;20460;-70
2023/10/31 10:29:12;;;;;;;0.40;0.40;;;11.80;99.90;;;;;;4949821;28;20641;-71
2023/10/31 10:31:39;;;;;;;0.60;0.60;;;11.80;99.90;;;;;;4957707;28;20490;-70
2023/10/31 10:34:06;;;;;;;0.20;0.20;;;11.80;99.90;;;;;;4959442;28;20554;-72
2023/10/31 10:36:34;;;;;;;0.27;0.27;;;11.80;99.90;;;;;;4955086;28;20814;-72
2023/10/31 10:39:03;;;;;;;0.60;0.60;;;11.80;99.90;;;;;;4949329;28;20508;-70
2023/10/31 10:41:30;;;;;;;0.50;0.50;;;11.80;99.90;;;;;;4950680;28;20491;-72
2023/10/31 10:43:57;;;;;;;0.70;0.70;;;11.90;99.90;;;;;;4950005;28;20467;-72
2023/10/31 10:46:28;;;;;;;0.47;0.47;;;12.00;99.90;;;;;;4959179;28;20528;-72
2023/10/31 10:48:57;;;;;;;0.60;0.60;;;12.10;99.90;;;;;;4954928;28;20981;-72
2023/10/31 10:51:30;;;;;;;0.57;0.50;;;12.20;99.90;;;;;;4952905;28;20492;-72
2023/10/31 10:54:03;;;;;;;0.40;0.40;;;12.20;99.90;;;;;;4955910;28;20589;-72
2023/10/31 10:56:37;;;;;;;0.50;0.50;;;12.30;99.90;;;;;;4949125;28;20493;-72
2023/10/31 10:59:09;;;;;;;0.70;0.70;;;12.40;99.90;;;;;;4954136;28;20985;-70
2023/10/31 11:01:39;;;;;;;1.03;0.90;;;12.40;99.90;;;;;;4959190;28;20499;-72
2023/10/31 11:04:07;;;;;;;0.40;0.40;;;12.40;99.90;;;;;;4952731;28;20464;-72
2023/10/31 11:06:36;;;;;;;0.30;0.30;;;12.50;99.90;;;;;;4951228;28;20472;-71
2023/10/31 11:09:04;;;;;;;0.33;0.33;;;12.50;99.90;;;;;;4952459;28;20555;-71
2023/10/31 11:11:31;;;;;;;0.30;0.30;;;12.50;99.90;;;;;;4949159;28;20857;-70
2023/10/31 11:13:59;;;;;;;0.93;0.37;;;12.50;99.90;;;;;;4950808;28;20507;-71
2023/10/31 11:16:33;;;;;;;0.70;0.70;;;12.50;99.90;;;;;;4948580;28;20469;-72
2023/10/31 11:19:01;;;;;;;0.83;0.83;;;12.60;99.90;;;;;;4967119;23;20859;-76
2023/10/31 11:21:29;;;;;;;0.73;0.73;;;12.60;99.90;;;;;;4952395;28;20472;-75
2023/10/31 11:24:00;;;;;;;0.33;0.33;;;12.50;99.90;;;;;;4952195;28;20476;-75
2023/10/31 11:26:27;;;;;;;0.83;0.40;;;12.30;99.90;;;;;;4956044;28;20496;-74
2023/10/31 11:29:03;;;;;;;0.80;0.80;;;12.30;99.90;;;;;;4958781;28;21087;-74
2023/10/31 11:31:30;;;;;;;1.40;1.40;;;12.20;99.90;;;;;;4964282;28;20460;-74
2023/10/31 11:33:56;;;;;;;0.40;0.40;;;12.10;99.90;;;;;;4959940;28;20232;-74
2023/10/31 11:36:25;;;;;;;1.10;0.80;;;12.10;99.90;;;;;;4962952;29;20468;-74
2023/10/31 11:39:12;;;;;;;0.73;0.73;;;12.10;99.90;;;;;;4963955;28;20494;-75
2023/10/31 11:41:39;;;;;;;2.53;1.70;;;12.10;99.90;;;;;;4955099;29;20503;-75
2023/10/31 11:44:06;;;;;;;1.40;1.30;;;12.20;99.90;;;;;;4960569;28;20468;-75
2023/10/31 11:46:33;;;;;;;0.80;0.80;;;12.20;99.90;;;;;;4965795;29;20472;-75
2023/10/31 11:49:01;;;;;;;0.93;0.83;;;12.20;99.90;;;;;;4964363;29;20599;-75
2023/10/31 11:51:30;;;;;;;1.70;0.97;;;12.20;99.90;;;;;;4964717;28;20467;-75
2023/10/31 11:53:57;;;;;;;1.63;1.53;;;12.20;99.90;;;;;;4964388;28;20488;-76
2023/10/31 11:56:24;;;;;;;1.27;1.27;;;12.20;99.90;;;;;;4962123;28;20479;-75
2023/10/31 11:58:58;;;;;;;0.40;0.40;;;12.30;99.90;;;;;;4957917;28;20513;-75
2023/10/31 12:01:24;;;;;;;0.67;0.67;;;12.20;99.90;;;;;;4956160;28;20485;-77
2023/10/31 12:03:51;;;;;;;1.33;1.30;;;12.20;99.90;;;;;;4955198;28;20468;-77
2023/10/31 12:06:20;;;;;;;1.70;1.00;;;12.20;99.90;;;;;;4957289;28;20475;-76
2023/10/31 12:08:49;;;;;;;0.87;0.87;;;12.20;99.90;;;;;;4956319;28;20542;-76
2023/10/31 12:11:17;;;;;;;2.20;1.90;;;12.10;99.90;;;;;;4956118;28;20468;-75
2023/10/31 12:13:54;;;;;;;3.80;2.40;;;12.10;99.90;;;;;;4954201;28;20546;-77
2023/10/31 12:16:24;;;;;;;1.47;1.37;;;12.10;99.90;;;;;;4952840;28;20471;-73
2023/10/31 12:18:56;;;;;;;2.10;1.03;;;12.00;99.90;;;;;;4954617;28;20500;-74
2023/10/31 12:21:39;;;;;;;1.55;1.55;;;12.00;99.90;;;;;;4950237;28;20516;-73
2023/10/31 12:24:08;;;;;;;1.67;1.57;;;12.00;99.90;;;;;;4953657;28;20263;-74
2023/10/31 12:26:35;;;;;;;0.83;0.83;;;12.00;99.90;;;;;;4952062;28;20471;-73
2023/10/31 12:29:13;;;;;;;2.73;2.00;;;12.00;99.90;;;;;;4948866;28;20498;-73
2023/10/31 12:31:47;;;;;;;2.10;2.00;;;12.00;99.90;;;;;;4948563;29;20871;-74
2023/10/31 12:34:15;;;;;;;1.00;1.00;;;12.00;99.90;;;;;;4951217;28;20503;-73
2023/10/31 12:36:42;;;;;;;2.03;1.73;;;12.00;99.90;;;;;;4948809;28;20650;-74
2023/10/31 12:39:12;;;;;;;0.90;0.90;;;12.00;99.90;;;;;;4951285;29;20493;-73
2023/10/31 12:41:40;;;;;;;2.75;2.55;;;12.00;99.90;;;;;;4955013;28;20464;-73
2023/10/31 12:44:08;;;;;;;2.03;1.93;;;12.00;99.90;;;;;;4954894;28;20224;-73
2023/10/31 12:46:35;;;;;;;0.73;0.73;;;12.00;99.90;;;;;;4949004;28;21020;-73
2023/10/31 12:49:02;;;;;;;0.63;0.63;;;12.00;99.90;;;;;;4952712;28;20542;-73
2023/10/31 12:51:29;;;;;;;0.80;0.80;;;11.90;99.90;;;;;;4952299;28;21321;-74
2023/10/31 12:53:56;;;;;;;0.50;0.50;;;11.90;99.90;;;;;;4952978;28;20503;-74
2023/10/31 12:56:41;;;;;;;1.37;0.80;;;11.90;99.90;;;;;;4953953;28;20804;-74
2023/10/31 12:59:08;;;;;;;0.77;0.40;;;11.90;99.90;;;;;;4944221;28;20614;-75
2023/10/31 13:01:36;;;;;;;0.40;0.40;;;11.90;99.90;;;;;;4950060;28;20825;-74
2023/10/31 13:04:04;;;;;;;0.77;0.70;;;11.90;99.90;;;;;;4954672;28;20460;-74
2023/10/31 13:06:30;;;;;;;0.80;0.80;;;11.90;99.90;;;;;;4945975;28;20476;-74
2023/10/31 13:08:57;;;;;;;0.70;0.70;;;11.90;99.90;;;;;;4945809;28;20500;-74
2023/10/31 13:11:25;;;;;;;0.60;0.50;;;11.90;99.90;;;;;;4951114;29;20504;-75
2023/10/31 13:13:54;;;;;;;3.00;2.90;;;11.90;99.90;;;;;;4945188;28;21011;-74
2023/10/31 13:16:20;;;;;;;0.90;0.90;;;11.90;99.90;;;;;;4953276;28;20480;-74
2023/10/31 13:18:47;;;;;;;0.70;0.70;;;11.90;99.90;;;;;;4950489;28;20512;-74
2023/10/31 13:21:16;;;;;;;0.50;0.50;;;11.90;99.90;;;;;;4951422;28;20465;-75
2023/10/31 13:23:45;;;;;;;0.50;0.50;;;11.90;99.90;;;;;;4954767;28;20467;-74
2023/10/31 13:26:12;;;;;;;1.97;1.37;;;12.00;99.90;;;;;;4950911;29;20478;-74
2023/10/31 13:28:39;;;;;;;0.40;0.40;;;12.00;99.90;;;;;;4954046;28;20484;-74
2023/10/31 13:31:08;;;;;;;0.60;0.60;;;12.10;99.90;;;;;;4953371;28;20465;-74
2023/10/31 13:33:35;;;;;;;4.07;3.87;;;12.10;99.90;;;;;;4954191;28;21012;-75
2023/10/31 13:36:03;;;;;;;4.07;2.60;;;12.10;99.90;;;;;;4953837;28;20503;-75
2023/10/31 13:38:30;;;;;;;0.83;0.83;;;12.10;99.90;;;;;;4954633;28;20910;-74
2023/10/31 13:40:57;;;;;;;0.63;0.63;;;12.20;99.90;;;;;;4950931;28;20480;-75
2023/10/31 13:43:24;;;;;;;1.70;1.60;;;12.20;99.90;;;;;;4951181;29;20461;-74
2023/10/31 13:45:50;;;;;;;1.77;0.87;;;12.20;99.90;;;;;;4952173;28;20461;-73
2023/10/31 13:48:18;;;;;;;0.53;0.53;;;12.20;99.90;;;;;;4958326;28;20492;-75
2023/10/31 13:50:45;;;;;;;1.33;0.90;;;12.20;99.90;;;;;;4957283;28;20987;-73
2023/10/31 13:53:12;;;;;;;0.50;0.50;;;12.20;99.90;;;;;;4950596;28;20488;-74
2023/10/31 13:55:39;;;;;;;0.60;0.60;;;12.20;99.90;;;;;;4945151;28;20472;-75
2023/10/31 13:58:06;;;;;;;0.80;0.80;;;12.20;99.90;;;;;;4948453;29;20599;-74
2023/10/31 14:00:33;;;;;;;0.80;0.70;;;12.20;99.90;;;;;;4951611;28;21154;-73
2023/10/31 14:02:59;;;;;;;1.03;1.03;;;12.20;99.90;;;;;;4953821;28;20473;-75
2023/10/31 14:05:27;;;;;;;0.80;0.80;;;12.20;99.90;;;;;;4950078;28;20821;-74
2023/10/31 14:07:54;;;;;;;0.60;0.60;;;12.10;99.90;;;;;;4949253;29;20496;-76
2023/10/31 14:10:21;;;;;;;1.53;1.53;;;12.10;99.90;;;;;;4955185;28;20964;-74
2023/10/31 14:12:48;;;;;;;0.70;0.70;;;12.10;99.90;;;;;;4950566;28;20555;-73
2023/10/31 14:15:15;;;;;;;1.77;1.73;;;12.10;99.90;;;;;;4948439;28;21019;-75
2023/10/31 14:17:41;;;;;;;1.10;1.10;;;12.10;99.90;;;;;;4950508;28;20504;-75
2023/10/31 14:20:09;;;;;;;1.70;1.60;;;12.10;99.90;;;;;;4949395;29;20473;-75
2023/10/31 14:22:37;;;;;;;1.00;1.00;;;12.10;99.90;;;;;;4951960;28;20507;-75
2023/10/31 14:25:07;;;;;;;0.93;0.93;;;12.00;99.90;;;;;;4952191;28;20457;-75
2023/10/31 14:27:34;;;;;;;1.90;1.60;;;12.00;99.90;;;;;;4945907;29;20493;-75
2023/10/31 14:30:01;;;;;;;3.20;3.00;;;12.00;99.90;;;;;;4950507;29;20875;-75
2023/10/31 14:32:27;;;;;;;4.90;3.13;;;12.00;99.90;;;;;;4952245;28;20469;-76
2023/10/31 14:34:54;;;;;;;2.70;2.70;;;12.00;99.90;;;;;;4949979;28;20872;-75
2023/10/31 14:37:21;;;;;;;1.87;1.77;;;12.00;99.90;;;;;;4950542;28;20466;-75
2023/10/31 14:39:49;;;;;;;1.10;1.10;;;11.90;99.90;;;;;;4952578;29;20469;-75
2023/10/31 14:42:16;;;;;;;0.93;0.93;;;11.80;99.90;;;;;;4948483;28;20480;-75
2023/10/31 14:44:43;;;;;;;0.50;0.50;;;11.80;99.90;;;;;;4952569;28;20495;-75
2023/10/31 14:47:10;;;;;;;0.50;0.50;;;11.70;99.90;;;;;;4953129;28;20464;-75
2023/10/31 14:49:37;;;;;;;1.70;0.80;;;11.70;99.90;;;;;;4950129;28;20898;-75
2023/10/31 14:52:04;;;;;;;0.93;0.90;;;11.60;99.90;;;;;;4950996;28;20560;-75
2023/10/31 14:54:31;;;;;;;0.95;0.70;;;11.60;99.90;;;;;;4945801;29;20903;-75
2023/10/31 14:57:01;;;;;;;0.73;0.73;;;11.60;99.90;;;;;;4952603;28;20216;-75
2023/10/31 14:59:27;;;;;;;0.70;0.70;;;11.60;99.90;;;;;;4950896;29;20316;-75
2023/10/31 15:01:54;;;;;;;1.40;1.30;;;11.40;99.90;;;;;;4950614;28;20475;-75
2023/10/31 15:04:21;;;;;;;1.00;1.00;;;11.20;99.90;;;;;;4948443;29;20242;-75
2023/10/31 15:06:47;;;;;;;1.05;1.05;;;11.00;99.90;;;;;;4947457;28;20211;-75
2023/10/31 15:09:14;;;;;;;1.30;1.20;;;10.90;99.90;;;;;;4948579;29;20227;-76
2023/10/31 15:11:41;;;;;;;1.65;1.65;;;10.60;99.90;;;;;;4941859;28;20206;-75
2023/10/31 15:14:09;;;;;;;3.03;1.38;;;10.40;99.90;;;;;;4945355;29;20234;-75
2023/10/31 15:16:36;;;;;;;1.40;1.33;;;10.30;99.90;;;;;;4950472;28;20238;-75
2023/10/31 15:19:03;;;;;;;1.10;1.10;;;10.20;99.90;;;;;;4951767;29;20249;-75
2023/10/31 15:21:29;;;;;;;1.08;1.08;;;10.20;99.90;;;;;;4950397;28;20257;-75
2023/10/31 15:23:57;;;;;;;1.02;1.02;;;10.10;99.90;;;;;;4951579;28;20200;-76
2023/10/31 15:26:26;;;;;;;1.70;1.60;;;10.00;99.90;;;;;;4948719;29;20221;-75
2023/10/31 15:28:53;;;;;;;0.63;0.60;;;10.00;99.90;;;;;;4951281;28;20701;-75
2023/10/31 15:31:21;;;;;;;0.77;0.60;;;9.80;99.90;;;;;;4951075;28;20216;-75
2023/10/31 15:33:48;;;;;;;0.60;0.60;;;9.60;99.90;;;;;;4950161;28;20233;-75
2023/10/31 15:36:15;;;;;;;1.25;1.15;;;9.60;99.90;;;;;;4950603;28;20207;-75
2023/10/31 15:38:42;;;;;;;1.30;0.80;;;9.50;99.90;;;;;;4950424;28;20237;-75
2023/10/31 15:41:08;;;;;;;0.65;0.63;;;9.40;99.90;;;;;;4948207;28;20660;-75
2023/10/31 15:43:35;;;;;;;2.38;0.88;;;9.30;99.90;;;;;;4950976;28;20690;-75
2023/10/31 15:46:02;;;;;;;1.00;1.00;;;9.30;99.90;;;;;;4948820;28;20213;-75
2023/10/31 15:48:30;;;;;;;0.60;0.60;;;9.20;99.90;;;;;;4950667;28;20225;-75
2023/10/31 15:50:58;;;;;;;1.00;1.00;;;9.20;99.90;;;;;;4949938;28;20231;-75
2023/10/31 15:53:27;;;;;;;1.75;1.20;;;9.10;99.90;;;;;;4949348;29;20206;-78
2023/10/31 15:55:54;;;;;;;0.82;0.82;;;9.10;99.90;;;;;;4944002;29;20630;-75
2023/10/31 15:58:21;;;;;;;2.20;0.85;;;9.10;99.90;;;;;;4950822;29;20221;-75
2023/10/31 16:00:48;;;;;;;0.68;0.68;;;9.00;99.90;;;;;;4950212;28;20213;-75
2023/10/31 16:03:15;;;;;;;0.52;0.52;;;8.90;99.90;;;;;;4951236;29;20217;-75
2023/10/31 16:05:44;;;;;;;1.10;0.95;;;8.80;99.90;;;;;;4949337;29;20201;-74
2023/10/31 16:08:10;;;;;;;0.60;0.60;;;8.70;99.90;;;;;;4949053;28;20908;-75
2023/10/31 16:10:37;;;;;;;1.15;1.13;;;8.70;99.90;;;;;;4945027;28;20301;-75
2023/10/31 16:13:04;;;;;;;1.98;1.73;;;8.60;99.90;;;;;;4946287;29;20208;-75
2023/10/31 16:15:31;;;;;;;1.45;0.93;;;8.60;99.90;;;;;;4941964;29;20229;-75
2023/10/31 16:17:58;;;;;;;1.70;1.52;;;8.50;99.90;;;;;;4946917;28;20226;-75
2023/10/31 16:20:25;;;;;;;1.48;1.38;;;8.40;99.90;;;;;;4949693;28;20214;-74
2023/10/31 16:22:53;;;;;;;3.03;1.40;;;8.40;99.90;;;;;;4943481;28;20209;-75
2023/10/31 16:25:20;;;;;;;0.90;0.90;;;8.30;99.90;;;;;;4942270;28;20209;-75
2023/10/31 16:27:47;;;;;;;0.90;0.90;;;8.30;99.90;;;;;;4940384;28;20225;-74
2023/10/31 16:30:14;;;;;;;0.80;0.80;;;8.30;99.90;;;;;;4951260;28;20216;-74
2023/10/31 16:32:41;;;;;;;1.08;1.05;;;8.20;99.90;;;;;;4946775;28;20239;-74
2023/10/31 16:35:08;;;;;;;3.50;1.63;;;8.20;99.90;;;;;;4950828;28;20229;-74
2023/10/31 16:37:35;;;;;;;3.05;1.05;;;8.20;99.90;;;;;;4952287;28;20225;-75
2023/10/31 16:40:03;;;;;;;1.05;1.00;;;8.10;99.90;;;;;;4950692;28;20214;-73
2023/10/31 16:42:32;;;;;;;0.60;0.60;;;8.10;99.90;;;;;;4954101;28;20213;-74
2023/10/31 16:45:00;;;;;;;0.90;0.90;;;8.00;99.90;;;;;;4956814;28;20205;-74
2023/10/31 16:47:27;;;;;;;0.65;0.65;;;8.00;99.90;;;;;;4953878;28;20690;-74
2023/10/31 16:49:53;;;;;;;0.90;0.90;;;7.90;99.90;;;;;;4953837;29;20667;-75
2023/10/31 16:52:20;;;;;;;0.60;0.55;;;7.90;99.90;;;;;;4965851;28;20223;-74
2023/10/31 16:54:47;;;;;;;7.07;2.55;;;7.90;99.90;;;;;;4973751;28;20215;-74
2023/10/31 16:57:15;;;;;;;1.77;1.67;;;7.80;99.90;;;;;;4972370;28;20201;-74
2023/10/31 16:59:42;;;;;;;2.83;1.77;;;7.80;99.90;;;;;;4969744;28;20205;-74
2023/10/31 17:02:09;;;;;;;1.33;1.20;;;7.80;99.90;;;;;;4973808;29;20213;-73
2023/10/31 17:04:36;;;;;;;1.10;1.10;;;7.80;99.90;;;;;;4976347;28;20687;-75
2023/10/31 17:07:03;;;;;;;2.50;1.48;;;7.80;99.90;;;;;;4975813;28;20206;-74
2023/10/31 17:09:30;;;;;;;2.00;1.85;;;7.80;99.90;;;;;;4967023;29;20221;-75
2023/10/31 17:11:56;;;;;;;1.58;1.50;;;7.70;99.90;;;;;;4975870;28;20207;-73
2023/10/31 17:14:24;;;;;;;2.15;2.15;;;7.70;99.90;;;;;;4973845;28;20224;-74
2023/10/31 17:16:51;;;;;;;3.35;1.90;;;7.70;99.90;;;;;;4969011;28;20231;-74
2023/10/31 17:19:18;;;;;;;2.58;1.55;;;7.70;99.90;;;;;;4974431;28;20293;-75
2023/10/31 17:21:45;;;;;;;4.00;1.67;;;7.70;99.90;;;;;;4979615;23;20233;-70
2023/10/31 17:24:12;;;;;;;2.28;1.83;;;7.70;99.90;;;;;;4952396;28;20577;-70
2023/10/31 17:26:39;;;;;;;13.63;8.00;;;7.60;99.90;;;;;;4949408;28;20205;-70
2023/10/31 17:29:05;;;;;;;3.45;2.47;;;7.60;99.90;;;;;;4953105;28;20209;-71
2023/10/31 17:31:34;;;;;;;2.63;1.40;;;7.60;99.90;;;;;;4959126;28;20220;-71
2023/10/31 17:34:01;;;;;;;6.28;2.65;;;7.60;99.90;;;;;;4971137;28;20204;-71
2023/10/31 17:36:28;;;;;;;3.70;2.00;;;7.50;99.90;;;;;;4962467;28;20553;-71
2023/10/31 17:38:54;;;;;;;2.42;1.40;;;7.50;99.90;;;;;;4967314;28;20209;-71
2023/10/31 17:41:21;;;;;;;2.08;1.98;;;7.50;99.90;;;;;;4963708;28;20225;-71
2023/10/31 17:43:48;;;;;;;1.30;1.20;;;7.40;99.90;;;;;;4958269;28;20679;-71
2023/10/31 17:46:15;;;;;;;1.25;1.25;;;7.40;99.90;;;;;;4964517;28;20319;-71
2023/10/31 17:48:45;;;;;;;1.40;1.30;;;7.40;99.90;;;;;;4965017;28;20230;-71
2023/10/31 17:51:12;;;;;;;1.35;1.25;;;7.40;99.90;;;;;;4963752;28;20229;-71